Terminal Aerodrome Forecast
Issued by NWS

Home | Current Version | Previous Version | Text Only | Print | Product List | Glossary On
Versions: 1 2 3 4 5 6 7 8 9 10 11 12 13 14 15 16
000
FTUS41 KCLE 210800 AAA
TAFFDY
TAF AMD
KFDY 210804Z 2108/2206 33009KT P6SM BKN015 OVC030
      TEMPO 2108/2111 SCT015 BKN030
     FM211500 33012G20KT P6SM OVC025
     FM220200 36009KT P6SM BKN030=

USA.gov is the U.S. government's official web portal to all federal, state and local government web resources and services.